sensor_id;sensor_type;location;lat;lon;timestamp;P1;durP1;ratioP1;P2;durP2;ratioP2
74894;SDS011;63447;49.446;8.666;2023-03-23T00:01:44;4.22;;;1.55;;
74894;SDS011;63447;49.446;8.666;2023-03-23T00:04:09;4.83;;;1.60;;
74894;SDS011;63447;49.446;8.666;2023-03-23T00:06:37;4.22;;;1.45;;
74894;SDS011;63447;49.446;8.666;2023-03-23T00:09:05;4.47;;;1.50;;
74894;SDS011;63447;49.446;8.666;2023-03-23T00:11:31;4.20;;;1.55;;
74894;SDS011;63447;49.446;8.666;2023-03-23T00:13:58;4.30;;;1.35;;
74894;SDS011;63447;49.446;8.666;2023-03-23T00:16:31;5.00;;;1.40;;
74894;SDS011;63447;49.446;8.666;2023-03-23T00:18:58;4.28;;;1.45;;
74894;SDS011;63447;49.446;8.666;2023-03-23T00:21:26;4.38;;;1.45;;
74894;SDS011;63447;49.446;8.666;2023-03-23T00:26:32;4.28;;;1.25;;
74894;SDS011;63447;49.446;8.666;2023-03-23T00:28:58;4.00;;;1.40;;
74894;SDS011;63447;49.446;8.666;2023-03-23T00:31:27;4.18;;;1.10;;
74894;SDS011;63447;49.446;8.666;2023-03-23T00:34:02;3.75;;;1.30;;
74894;SDS011;63447;49.446;8.666;2023-03-23T00:36:30;3.50;;;1.20;;
74894;SDS011;63447;49.446;8.666;2023-03-23T00:38:56;4.15;;;1.50;;
74894;SDS011;63447;49.446;8.666;2023-03-23T00:41:26;4.60;;;1.30;;
74894;SDS011;63447;49.446;8.666;2023-03-23T00:43:55;3.65;;;1.17;;
74894;SDS011;63447;49.446;8.666;2023-03-23T00:46:21;3.88;;;1.20;;
74894;SDS011;63447;49.446;8.666;2023-03-23T00:48:47;3.65;;;1.27;;
74894;SDS011;63447;49.446;8.666;2023-03-23T00:51:13;4.05;;;1.15;;
74894;SDS011;63447;49.446;8.666;2023-03-23T00:53:41;3.65;;;1.30;;
74894;SDS011;63447;49.446;8.666;2023-03-23T00:56:07;3.75;;;1.30;;
74894;SDS011;63447;49.446;8.666;2023-03-23T00:58:35;2.83;;;0.90;;
74894;SDS011;63447;49.446;8.666;2023-03-23T01:01:03;3.42;;;1.20;;
74894;SDS011;63447;49.446;8.666;2023-03-23T01:03:31;3.97;;;1.30;;
74894;SDS011;63447;49.446;8.666;2023-03-23T01:06:03;3.33;;;1.00;;
74894;SDS011;63447;49.446;8.666;2023-03-23T01:08:29;3.22;;;1.20;;
74894;SDS011;63447;49.446;8.666;2023-03-23T01:11:01;3.83;;;1.23;;
74894;SDS011;63447;49.446;8.666;2023-03-23T01:13:31;3.42;;;1.42;;
74894;SDS011;63447;49.446;8.666;2023-03-23T01:15:56;4.55;;;1.20;;
74894;SDS011;63447;49.446;8.666;2023-03-23T01:18:22;5.73;;;1.30;;
74894;SDS011;63447;49.446;8.666;2023-03-23T01:20:47;3.60;;;1.10;;
74894;SDS011;63447;49.446;8.666;2023-03-23T01:23:12;3.70;;;1.10;;
74894;SDS011;63447;49.446;8.666;2023-03-23T01:25:38;4.87;;;1.07;;
74894;SDS011;63447;49.446;8.666;2023-03-23T01:28:03;5.53;;;1.20;;
74894;SDS011;63447;49.446;8.666;2023-03-23T01:30:29;4.53;;;1.17;;
74894;SDS011;63447;49.446;8.666;2023-03-23T01:32:56;3.30;;;1.20;;
74894;SDS011;63447;49.446;8.666;2023-03-23T01:35:26;3.03;;;1.00;;
74894;SDS011;63447;49.446;8.666;2023-03-23T01:37:51;2.75;;;0.85;;
74894;SDS011;63447;49.446;8.666;2023-03-23T01:40:19;3.50;;;0.98;;
74894;SDS011;63447;49.446;8.666;2023-03-23T01:42:47;3.92;;;1.00;;
74894;SDS011;63447;49.446;8.666;2023-03-23T01:51:03;4.55;;;1.10;;
74894;SDS011;63447;49.446;8.666;2023-03-23T01:53:36;3.30;;;1.00;;
74894;SDS011;63447;49.446;8.666;2023-03-23T01:56:07;4.30;;;1.23;;
74894;SDS011;63447;49.446;8.666;2023-03-23T01:58:36;3.00;;;1.00;;
74894;SDS011;63447;49.446;8.666;2023-03-23T02:01:09;4.03;;;1.10;;
74894;SDS011;63447;49.446;8.666;2023-03-23T02:03:37;4.10;;;1.17;;
74894;SDS011;63447;49.446;8.666;2023-03-23T02:06:04;3.90;;;0.98;;
74894;SDS011;63447;49.446;8.666;2023-03-23T02:08:30;3.08;;;0.80;;
74894;SDS011;63447;49.446;8.666;2023-03-23T02:10:57;2.65;;;0.80;;
74894;SDS011;63447;49.446;8.666;2023-03-23T02:13:23;3.67;;;0.93;;
74894;SDS011;63447;49.446;8.666;2023-03-23T02:34:38;3.47;;;1.10;;
74894;SDS011;63447;49.446;8.666;2023-03-23T02:37:14;2.88;;;0.93;;
74894;SDS011;63447;49.446;8.666;2023-03-23T02:39:51;4.25;;;1.13;;
74894;SDS011;63447;49.446;8.666;2023-03-23T02:42:20;2.85;;;0.90;;
74894;SDS011;63447;49.446;8.666;2023-03-23T02:44:53;3.58;;;1.02;;
74894;SDS011;63447;49.446;8.666;2023-03-23T02:47:24;3.55;;;1.00;;
74894;SDS011;63447;49.446;8.666;2023-03-23T02:49:53;3.53;;;1.10;;
74894;SDS011;63447;49.446;8.666;2023-03-23T02:52:24;3.03;;;0.95;;
74894;SDS011;63447;49.446;8.666;2023-03-23T02:54:53;4.72;;;1.20;;
74894;SDS011;63447;49.446;8.666;2023-03-23T02:57:24;4.80;;;1.17;;
74894;SDS011;63447;49.446;8.666;2023-03-23T02:59:51;3.75;;;1.30;;
74894;SDS011;63447;49.446;8.666;2023-03-23T03:02:17;4.07;;;1.45;;
74894;SDS011;63447;49.446;8.666;2023-03-23T03:05:32;3.55;;;1.45;;
74894;SDS011;63447;49.446;8.666;2023-03-23T03:10:51;3.40;;;1.20;;
74894;SDS011;63447;49.446;8.666;2023-03-23T03:13:56;3.58;;;1.40;;
74894;SDS011;63447;49.446;8.666;2023-03-23T03:16:44;3.40;;;1.00;;
74894;SDS011;63447;49.446;8.666;2023-03-23T03:21:45;3.55;;;1.30;;
74894;SDS011;63447;49.446;8.666;2023-03-23T03:24:14;3.88;;;1.10;;
74894;SDS011;63447;49.446;8.666;2023-03-23T03:26:44;3.50;;;1.10;;
74894;SDS011;63447;49.446;8.666;2023-03-23T03:29:12;4.18;;;1.20;;
74894;SDS011;63447;49.446;8.666;2023-03-23T03:31:43;3.75;;;1.25;;
74894;SDS011;63447;49.446;8.666;2023-03-23T03:34:10;3.63;;;1.15;;
74894;SDS011;63447;49.446;8.666;2023-03-23T03:36:36;3.10;;;1.10;;
74894;SDS011;63447;49.446;8.666;2023-03-23T03:39:06;4.63;;;1.40;;
74894;SDS011;63447;49.446;8.666;2023-03-23T03:41:34;3.95;;;1.30;;
74894;SDS011;63447;49.446;8.666;2023-03-23T03:44:01;3.92;;;1.33;;
74894;SDS011;63447;49.446;8.666;2023-03-23T03:46:26;3.58;;;1.00;;
74894;SDS011;63447;49.446;8.666;2023-03-23T03:48:54;3.17;;;1.10;;
74894;SDS011;63447;49.446;8.666;2023-03-23T03:51:21;4.07;;;1.35;;
74894;SDS011;63447;49.446;8.666;2023-03-23T03:53:47;3.97;;;1.38;;
74894;SDS011;63447;49.446;8.666;2023-03-23T03:56:12;4.63;;;1.27;;
74894;SDS011;63447;49.446;8.666;2023-03-23T03:58:40;3.63;;;1.27;;
74894;SDS011;63447;49.446;8.666;2023-03-23T04:01:07;4.28;;;1.40;;
74894;SDS011;63447;49.446;8.666;2023-03-23T04:03:35;3.60;;;1.35;;
74894;SDS011;63447;49.446;8.666;2023-03-23T04:06:04;4.18;;;1.42;;
74894;SDS011;63447;49.446;8.666;2023-03-23T04:08:30;4.00;;;1.30;;
74894;SDS011;63447;49.446;8.666;2023-03-23T04:10:56;4.75;;;1.58;;
74894;SDS011;63447;49.446;8.666;2023-03-23T04:13:22;3.40;;;1.23;;
74894;SDS011;63447;49.446;8.666;2023-03-23T04:15:48;3.90;;;1.30;;
74894;SDS011;63447;49.446;8.666;2023-03-23T04:18:16;3.47;;;1.33;;
74894;SDS011;63447;49.446;8.666;2023-03-23T04:20:43;4.82;;;1.95;;
74894;SDS011;63447;49.446;8.666;2023-03-23T04:23:12;4.47;;;1.40;;
74894;SDS011;63447;49.446;8.666;2023-03-23T04:25:38;3.70;;;1.48;;
74894;SDS011;63447;49.446;8.666;2023-03-23T04:28:05;4.13;;;1.50;;
74894;SDS011;63447;49.446;8.666;2023-03-23T04:30:30;3.88;;;1.40;;
74894;SDS011;63447;49.446;8.666;2023-03-23T04:33:00;4.72;;;1.40;;
74894;SDS011;63447;49.446;8.666;2023-03-23T04:35:29;3.72;;;1.20;;
74894;SDS011;63447;49.446;8.666;2023-03-23T04:37:57;4.05;;;1.50;;
74894;SDS011;63447;49.446;8.666;2023-03-23T04:40:24;4.55;;;1.58;;
74894;SDS011;63447;49.446;8.666;2023-03-23T04:42:50;4.63;;;1.80;;
74894;SDS011;63447;49.446;8.666;2023-03-23T04:45:22;4.15;;;1.67;;
74894;SDS011;63447;49.446;8.666;2023-03-23T04:47:53;4.20;;;1.70;;
74894;SDS011;63447;49.446;8.666;2023-03-23T04:50:22;5.65;;;1.77;;
74894;SDS011;63447;49.446;8.666;2023-03-23T04:52:49;4.47;;;1.60;;
74894;SDS011;63447;49.446;8.666;2023-03-23T04:55:16;4.43;;;1.60;;
74894;SDS011;63447;49.446;8.666;2023-03-23T04:57:45;3.80;;;1.60;;
74894;SDS011;63447;49.446;8.666;2023-03-23T05:00:14;4.18;;;1.73;;
74894;SDS011;63447;49.446;8.666;2023-03-23T05:02:41;4.35;;;1.65;;
74894;SDS011;63447;49.446;8.666;2023-03-23T05:05:08;5.22;;;2.00;;
74894;SDS011;63447;49.446;8.666;2023-03-23T05:07:36;4.10;;;1.80;;
74894;SDS011;63447;49.446;8.666;2023-03-23T05:10:05;4.78;;;1.73;;
74894;SDS011;63447;49.446;8.666;2023-03-23T05:12:32;4.75;;;1.70;;
74894;SDS011;63447;49.446;8.666;2023-03-23T05:14:58;5.90;;;2.08;;
74894;SDS011;63447;49.446;8.666;2023-03-23T05:17:24;5.50;;;1.90;;
74894;SDS011;63447;49.446;8.666;2023-03-23T05:19:50;4.63;;;1.77;;
74894;SDS011;63447;49.446;8.666;2023-03-23T05:22:16;4.40;;;1.83;;
74894;SDS011;63447;49.446;8.666;2023-03-23T05:24:42;4.68;;;2.03;;
74894;SDS011;63447;49.446;8.666;2023-03-23T05:27:10;3.83;;;1.52;;
74894;SDS011;63447;49.446;8.666;2023-03-23T05:29:36;3.78;;;1.52;;
74894;SDS011;63447;49.446;8.666;2023-03-23T05:32:06;4.38;;;1.65;;
74894;SDS011;63447;49.446;8.666;2023-03-23T05:34:36;4.22;;;1.52;;
74894;SDS011;63447;49.446;8.666;2023-03-23T05:37:03;3.40;;;1.27;;
74894;SDS011;63447;49.446;8.666;2023-03-23T05:39:30;4.15;;;1.27;;
74894;SDS011;63447;49.446;8.666;2023-03-23T05:41:56;3.90;;;1.42;;
74894;SDS011;63447;49.446;8.666;2023-03-23T05:44:21;4.53;;;1.40;;
74894;SDS011;63447;49.446;8.666;2023-03-23T05:46:47;3.93;;;1.50;;
74894;SDS011;63447;49.446;8.666;2023-03-23T05:49:13;4.22;;;1.30;;
74894;SDS011;63447;49.446;8.666;2023-03-23T05:51:41;5.22;;;1.60;;
74894;SDS011;63447;49.446;8.666;2023-03-23T05:54:09;5.43;;;1.60;;
74894;SDS011;63447;49.446;8.666;2023-03-23T05:56:39;5.13;;;2.05;;
74894;SDS011;63447;49.446;8.666;2023-03-23T05:59:05;4.38;;;1.75;;
74894;SDS011;63447;49.446;8.666;2023-03-23T06:01:30;3.90;;;1.60;;
74894;SDS011;63447;49.446;8.666;2023-03-23T06:03:56;4.70;;;1.75;;
74894;SDS011;63447;49.446;8.666;2023-03-23T06:06:23;5.05;;;1.90;;
74894;SDS011;63447;49.446;8.666;2023-03-23T06:08:49;4.93;;;1.80;;
74894;SDS011;63447;49.446;8.666;2023-03-23T06:11:15;5.05;;;1.83;;
74894;SDS011;63447;49.446;8.666;2023-03-23T06:13:41;4.65;;;2.00;;
74894;SDS011;63447;49.446;8.666;2023-03-23T06:16:09;4.88;;;2.00;;
74894;SDS011;63447;49.446;8.666;2023-03-23T06:18:35;4.20;;;1.85;;
74894;SDS011;63447;49.446;8.666;2023-03-23T06:21:05;5.40;;;1.90;;
74894;SDS011;63447;49.446;8.666;2023-03-23T06:23:31;4.47;;;1.80;;
74894;SDS011;63447;49.446;8.666;2023-03-23T06:25:58;4.53;;;1.60;;
74894;SDS011;63447;49.446;8.666;2023-03-23T06:28:26;5.38;;;1.58;;
74894;SDS011;63447;49.446;8.666;2023-03-23T06:30:51;6.88;;;2.83;;
74894;SDS011;63447;49.446;8.666;2023-03-23T06:33:17;5.18;;;1.90;;
74894;SDS011;63447;49.446;8.666;2023-03-23T06:35:43;4.72;;;1.77;;
74894;SDS011;63447;49.446;8.666;2023-03-23T06:38:08;4.60;;;1.57;;
74894;SDS011;63447;49.446;8.666;2023-03-23T06:40:37;4.85;;;1.60;;
74894;SDS011;63447;49.446;8.666;2023-03-23T06:43:06;4.13;;;1.73;;
74894;SDS011;63447;49.446;8.666;2023-03-23T06:45:32;4.78;;;1.50;;
74894;SDS011;63447;49.446;8.666;2023-03-23T06:47:58;4.57;;;1.50;;
74894;SDS011;63447;49.446;8.666;2023-03-23T06:50:23;4.33;;;1.60;;
74894;SDS011;63447;49.446;8.666;2023-03-23T06:52:49;3.93;;;1.40;;
74894;SDS011;63447;49.446;8.666;2023-03-23T06:55:16;4.35;;;1.60;;
74894;SDS011;63447;49.446;8.666;2023-03-23T06:57:42;4.22;;;1.70;;
74894;SDS011;63447;49.446;8.666;2023-03-23T07:00:08;4.28;;;1.70;;
74894;SDS011;63447;49.446;8.666;2023-03-23T07:02:38;6.07;;;2.50;;
74894;SDS011;63447;49.446;8.666;2023-03-23T07:05:09;4.22;;;1.52;;
74894;SDS011;63447;49.446;8.666;2023-03-23T07:07:36;5.13;;;1.70;;
74894;SDS011;63447;49.446;8.666;2023-03-23T07:10:03;3.85;;;1.58;;
74894;SDS011;63447;49.446;8.666;2023-03-23T07:12:33;4.07;;;1.48;;
74894;SDS011;63447;49.446;8.666;2023-03-23T07:15:01;6.32;;;1.38;;
74894;SDS011;63447;49.446;8.666;2023-03-23T07:17:27;4.55;;;1.80;;
74894;SDS011;63447;49.446;8.666;2023-03-23T07:19:53;6.38;;;3.13;;
74894;SDS011;63447;49.446;8.666;2023-03-23T07:22:19;4.40;;;1.70;;
74894;SDS011;63447;49.446;8.666;2023-03-23T07:24:46;4.15;;;1.50;;
74894;SDS011;63447;49.446;8.666;2023-03-23T07:27:12;5.50;;;1.37;;
74894;SDS011;63447;49.446;8.666;2023-03-23T07:29:38;3.65;;;1.20;;
74894;SDS011;63447;49.446;8.666;2023-03-23T07:32:08;3.42;;;1.20;;
74894;SDS011;63447;49.446;8.666;2023-03-23T07:34:36;4.43;;;1.15;;
74894;SDS011;63447;49.446;8.666;2023-03-23T07:37:04;4.50;;;1.35;;
74894;SDS011;63447;49.446;8.666;2023-03-23T07:39:30;3.75;;;1.10;;
74894;SDS011;63447;49.446;8.666;2023-03-23T07:41:59;3.90;;;1.08;;
74894;SDS011;63447;49.446;8.666;2023-03-23T07:44:25;3.83;;;1.13;;
74894;SDS011;63447;49.446;8.666;2023-03-23T07:46:51;2.65;;;0.90;;
74894;SDS011;63447;49.446;8.666;2023-03-23T07:49:18;4.28;;;1.08;;
74894;SDS011;63447;49.446;8.666;2023-03-23T07:51:47;3.17;;;1.00;;
74894;SDS011;63447;49.446;8.666;2023-03-23T07:54:14;3.20;;;1.20;;
74894;SDS011;63447;49.446;8.666;2023-03-23T07:56:42;3.03;;;0.93;;
74894;SDS011;63447;49.446;8.666;2023-03-23T07:59:08;3.28;;;1.00;;
74894;SDS011;63447;49.446;8.666;2023-03-23T08:01:34;2.65;;;0.95;;
74894;SDS011;63447;49.446;8.666;2023-03-23T08:04:06;3.10;;;1.00;;
74894;SDS011;63447;49.446;8.666;2023-03-23T08:06:34;3.40;;;1.00;;
74894;SDS011;63447;49.446;8.666;2023-03-23T08:09:01;2.95;;;1.00;;
74894;SDS011;63447;49.446;8.666;2023-03-23T08:11:31;4.53;;;1.20;;
74894;SDS011;63447;49.446;8.666;2023-03-23T08:13:56;3.33;;;1.00;;
74894;SDS011;63447;49.446;8.666;2023-03-23T08:16:22;5.23;;;1.17;;
74894;SDS011;63447;49.446;8.666;2023-03-23T08:18:47;3.40;;;1.10;;
74894;SDS011;63447;49.446;8.666;2023-03-23T08:21:13;3.30;;;1.00;;
74894;SDS011;63447;49.446;8.666;2023-03-23T08:23:38;4.03;;;1.00;;
74894;SDS011;63447;49.446;8.666;2023-03-23T08:26:04;3.70;;;1.10;;
74894;SDS011;63447;49.446;8.666;2023-03-23T08:28:32;5.22;;;1.10;;
74894;SDS011;63447;49.446;8.666;2023-03-23T08:30:59;2.88;;;0.90;;
74894;SDS011;63447;49.446;8.666;2023-03-23T08:33:29;3.30;;;0.90;;
74894;SDS011;63447;49.446;8.666;2023-03-23T08:35:58;3.65;;;0.95;;
74894;SDS011;63447;49.446;8.666;2023-03-23T08:38:24;3.33;;;1.20;;
74894;SDS011;63447;49.446;8.666;2023-03-23T08:40:50;4.45;;;1.13;;
74894;SDS011;63447;49.446;8.666;2023-03-23T08:43:19;4.22;;;1.17;;
74894;SDS011;63447;49.446;8.666;2023-03-23T08:45:44;3.78;;;1.10;;
74894;SDS011;63447;49.446;8.666;2023-03-23T08:48:09;3.77;;;1.20;;
74894;SDS011;63447;49.446;8.666;2023-03-23T08:50:35;3.35;;;1.20;;
74894;SDS011;63447;49.446;8.666;2023-03-23T08:53:01;3.08;;;1.13;;
74894;SDS011;63447;49.446;8.666;2023-03-23T08:55:28;3.22;;;0.90;;
74894;SDS011;63447;49.446;8.666;2023-03-23T08:57:54;4.03;;;1.20;;
74894;SDS011;63447;49.446;8.666;2023-03-23T09:00:20;3.28;;;1.00;;
74894;SDS011;63447;49.446;8.666;2023-03-23T09:02:49;4.25;;;1.10;;
74894;SDS011;63447;49.446;8.666;2023-03-23T09:05:19;3.42;;;1.30;;
74894;SDS011;63447;49.446;8.666;2023-03-23T09:07:50;3.97;;;1.10;;
74894;SDS011;63447;49.446;8.666;2023-03-23T09:10:16;3.40;;;1.13;;
74894;SDS011;63447;49.446;8.666;2023-03-23T09:12:42;3.60;;;1.00;;
74894;SDS011;63447;49.446;8.666;2023-03-23T09:15:10;3.15;;;0.82;;
74894;SDS011;63447;49.446;8.666;2023-03-23T09:17:39;4.20;;;1.20;;
74894;SDS011;63447;49.446;8.666;2023-03-23T09:20:07;3.42;;;1.00;;
74894;SDS011;63447;49.446;8.666;2023-03-23T09:22:37;4.22;;;1.20;;
74894;SDS011;63447;49.446;8.666;2023-03-23T09:25:07;4.40;;;1.20;;
74894;SDS011;63447;49.446;8.666;2023-03-23T09:27:34;4.55;;;1.20;;
74894;SDS011;63447;49.446;8.666;2023-03-23T09:30:01;3.40;;;1.20;;
74894;SDS011;63447;49.446;8.666;2023-03-23T09:32:37;4.07;;;1.17;;
74894;SDS011;63447;49.446;8.666;2023-03-23T09:35:04;3.92;;;1.23;;
74894;SDS011;63447;49.446;8.666;2023-03-23T09:37:37;4.28;;;1.27;;
74894;SDS011;63447;49.446;8.666;2023-03-23T09:51:00;4.53;;;1.20;;
74894;SDS011;63447;49.446;8.666;2023-03-23T09:53:38;3.33;;;1.23;;
74894;SDS011;63447;49.446;8.666;2023-03-23T09:56:11;3.67;;;1.20;;
74894;SDS011;63447;49.446;8.666;2023-03-23T09:58:46;3.70;;;1.20;;
74894;SDS011;63447;49.446;8.666;2023-03-23T10:04:09;3.78;;;1.15;;
74894;SDS011;63447;49.446;8.666;2023-03-23T10:06:41;4.70;;;1.27;;
74894;SDS011;63447;49.446;8.666;2023-03-23T10:09:11;4.65;;;1.23;;
74894;SDS011;63447;49.446;8.666;2023-03-23T10:19:41;3.90;;;1.20;;
74894;SDS011;63447;49.446;8.666;2023-03-23T10:22:11;5.20;;;1.00;;
74894;SDS011;63447;49.446;8.666;2023-03-23T10:30:34;3.42;;;0.90;;
74894;SDS011;63447;49.446;8.666;2023-03-23T10:32:50;3.85;;;0.93;;
74894;SDS011;63447;49.446;8.666;2023-03-23T10:35:29;3.28;;;1.08;;
74894;SDS011;63447;49.446;8.666;2023-03-23T10:38:03;3.47;;;0.90;;
74894;SDS011;63447;49.446;8.666;2023-03-23T10:40:31;4.68;;;1.23;;
74894;SDS011;63447;49.446;8.666;2023-03-23T10:43:00;5.38;;;1.17;;
74894;SDS011;63447;49.446;8.666;2023-03-23T10:45:29;3.30;;;0.98;;
74894;SDS011;63447;49.446;8.666;2023-03-23T10:48:17;6.20;;;1.33;;
74894;SDS011;63447;49.446;8.666;2023-03-23T10:50:48;3.28;;;1.02;;
74894;SDS011;63447;49.446;8.666;2023-03-23T10:53:25;3.55;;;1.15;;
74894;SDS011;63447;49.446;8.666;2023-03-23T10:55:57;3.92;;;1.10;;
74894;SDS011;63447;49.446;8.666;2023-03-23T10:58:34;3.00;;;1.08;;
74894;SDS011;63447;49.446;8.666;2023-03-23T11:01:01;3.20;;;1.00;;
74894;SDS011;63447;49.446;8.666;2023-03-23T11:03:41;3.47;;;0.95;;
74894;SDS011;63447;49.446;8.666;2023-03-23T11:06:19;3.08;;;1.00;;
74894;SDS011;63447;49.446;8.666;2023-03-23T11:08:48;4.65;;;1.00;;
74894;SDS011;63447;49.446;8.666;2023-03-23T11:11:28;3.08;;;0.80;;
74894;SDS011;63447;49.446;8.666;2023-03-23T11:14:47;3.38;;;0.90;;
74894;SDS011;63447;49.446;8.666;2023-03-23T11:19:21;3.00;;;0.93;;
74894;SDS011;63447;49.446;8.666;2023-03-23T11:24:30;3.22;;;0.98;;
74894;SDS011;63447;49.446;8.666;2023-03-23T11:27:00;3.47;;;1.00;;
74894;SDS011;63447;49.446;8.666;2023-03-23T11:29:31;3.03;;;1.00;;
74894;SDS011;63447;49.446;8.666;2023-03-23T11:34:24;2.90;;;1.00;;
74894;SDS011;63447;49.446;8.666;2023-03-23T11:37:02;4.57;;;1.10;;
74894;SDS011;63447;49.446;8.666;2023-03-23T11:39:33;3.60;;;1.00;;
74894;SDS011;63447;49.446;8.666;2023-03-23T11:42:12;2.90;;;0.88;;
74894;SDS011;63447;49.446;8.666;2023-03-23T11:44:52;3.10;;;0.80;;
74894;SDS011;63447;49.446;8.666;2023-03-23T11:49:50;4.27;;;1.00;;
74894;SDS011;63447;49.446;8.666;2023-03-23T11:55:17;3.25;;;1.05;;
74894;SDS011;63447;49.446;8.666;2023-03-23T11:57:50;4.18;;;1.10;;
74894;SDS011;63447;49.446;8.666;2023-03-23T12:00:23;4.05;;;1.20;;
74894;SDS011;63447;49.446;8.666;2023-03-23T12:02:57;3.63;;;1.13;;
74894;SDS011;63447;49.446;8.666;2023-03-23T12:08:32;4.95;;;1.30;;
74894;SDS011;63447;49.446;8.666;2023-03-23T12:13:49;3.42;;;1.20;;
74894;SDS011;63447;49.446;8.666;2023-03-23T12:27:03;3.40;;;1.20;;
74894;SDS011;63447;49.446;8.666;2023-03-23T12:34:47;4.03;;;1.50;;
74894;SDS011;63447;49.446;8.666;2023-03-23T12:37:19;4.00;;;1.40;;
74894;SDS011;63447;49.446;8.666;2023-03-23T12:51:37;4.00;;;1.40;;
74894;SDS011;63447;49.446;8.666;2023-03-23T13:02:44;4.35;;;1.20;;
74894;SDS011;63447;49.446;8.666;2023-03-23T13:07:48;3.75;;;1.20;;
74894;SDS011;63447;49.446;8.666;2023-03-23T13:10:22;6.40;;;1.50;;
74894;SDS011;63447;49.446;8.666;2023-03-23T13:12:52;3.58;;;1.08;;
74894;SDS011;63447;49.446;8.666;2023-03-23T13:15:27;4.13;;;1.40;;
74894;SDS011;63447;49.446;8.666;2023-03-23T13:20:53;3.90;;;1.50;;
74894;SDS011;63447;49.446;8.666;2023-03-23T13:23:39;3.95;;;1.50;;
74894;SDS011;63447;49.446;8.666;2023-03-23T13:26:12;5.13;;;1.90;;
74894;SDS011;63447;49.446;8.666;2023-03-23T13:28:53;4.43;;;1.75;;
74894;SDS011;63447;49.446;8.666;2023-03-23T13:34:43;4.88;;;1.73;;
74894;SDS011;63447;49.446;8.666;2023-03-23T13:39:25;4.75;;;1.30;;
74894;SDS011;63447;49.446;8.666;2023-03-23T13:49:58;4.00;;;1.58;;
74894;SDS011;63447;49.446;8.666;2023-03-23T14:02:51;4.35;;;1.60;;
74894;SDS011;63447;49.446;8.666;2023-03-23T14:10:35;5.90;;;1.73;;
74894;SDS011;63447;49.446;8.666;2023-03-23T14:13:06;5.55;;;1.80;;
74894;SDS011;63447;49.446;8.666;2023-03-23T14:15:58;4.40;;;1.50;;
74894;SDS011;63447;49.446;8.666;2023-03-23T14:18:28;4.45;;;1.70;;
74894;SDS011;63447;49.446;8.666;2023-03-23T14:21:06;4.07;;;1.60;;
74894;SDS011;63447;49.446;8.666;2023-03-23T14:23:42;5.22;;;1.95;;
74894;SDS011;63447;49.446;8.666;2023-03-23T14:26:11;5.03;;;1.63;;
74894;SDS011;63447;49.446;8.666;2023-03-23T14:28:44;4.00;;;1.52;;
74894;SDS011;63447;49.446;8.666;2023-03-23T14:31:18;3.95;;;1.60;;
74894;SDS011;63447;49.446;8.666;2023-03-23T14:33:49;4.00;;;1.40;;
74894;SDS011;63447;49.446;8.666;2023-03-23T14:36:29;5.07;;;1.88;;
74894;SDS011;63447;49.446;8.666;2023-03-23T14:39:04;5.78;;;2.00;;
74894;SDS011;63447;49.446;8.666;2023-03-23T14:41:39;4.18;;;1.90;;
74894;SDS011;63447;49.446;8.666;2023-03-23T14:44:06;4.68;;;1.80;;
74894;SDS011;63447;49.446;8.666;2023-03-23T14:46:36;4.47;;;1.70;;
74894;SDS011;63447;49.446;8.666;2023-03-23T14:49:04;6.03;;;1.70;;
74894;SDS011;63447;49.446;8.666;2023-03-23T14:51:31;5.05;;;1.98;;
74894;SDS011;63447;49.446;8.666;2023-03-23T14:54:01;4.53;;;1.65;;
74894;SDS011;63447;49.446;8.666;2023-03-23T14:56:32;4.15;;;1.70;;
74894;SDS011;63447;49.446;8.666;2023-03-23T15:01:31;5.03;;;1.55;;
74894;SDS011;63447;49.446;8.666;2023-03-23T15:09:03;5.05;;;1.73;;
74894;SDS011;63447;49.446;8.666;2023-03-23T15:11:34;3.85;;;1.67;;
74894;SDS011;63447;49.446;8.666;2023-03-23T15:14:23;3.58;;;1.20;;
74894;SDS011;63447;49.446;8.666;2023-03-23T15:16:50;4.00;;;1.70;;
74894;SDS011;63447;49.446;8.666;2023-03-23T15:21:49;4.17;;;1.30;;
74894;SDS011;63447;49.446;8.666;2023-03-23T15:24:19;3.67;;;1.30;;
74894;SDS011;63447;49.446;8.666;2023-03-23T15:27:02;3.63;;;1.42;;
74894;SDS011;63447;49.446;8.666;2023-03-23T15:29:52;7.30;;;1.90;;
74894;SDS011;63447;49.446;8.666;2023-03-23T15:32:23;4.25;;;1.50;;
74894;SDS011;63447;49.446;8.666;2023-03-23T15:34:57;4.13;;;1.50;;
74894;SDS011;63447;49.446;8.666;2023-03-23T15:37:29;4.40;;;1.40;;
74894;SDS011;63447;49.446;8.666;2023-03-23T15:39:59;4.22;;;1.45;;
74894;SDS011;63447;49.446;8.666;2023-03-23T15:42:29;4.70;;;1.50;;
74894;SDS011;63447;49.446;8.666;2023-03-23T15:45:03;4.10;;;1.60;;
74894;SDS011;63447;49.446;8.666;2023-03-23T15:52:41;5.47;;;1.90;;
74894;SDS011;63447;49.446;8.666;2023-03-23T15:57:53;3.58;;;1.20;;
74894;SDS011;63447;49.446;8.666;2023-03-23T16:00:21;3.75;;;1.35;;
74894;SDS011;63447;49.446;8.666;2023-03-23T16:02:49;4.00;;;1.30;;
74894;SDS011;63447;49.446;8.666;2023-03-23T16:05:19;5.40;;;1.35;;
74894;SDS011;63447;49.446;8.666;2023-03-23T16:07:47;4.75;;;1.63;;
74894;SDS011;63447;49.446;8.666;2023-03-23T16:10:15;3.75;;;1.40;;
74894;SDS011;63447;49.446;8.666;2023-03-23T16:12:49;4.57;;;1.40;;
74894;SDS011;63447;49.446;8.666;2023-03-23T16:15:17;4.40;;;1.40;;
74894;SDS011;63447;49.446;8.666;2023-03-23T16:17:45;3.83;;;1.35;;
74894;SDS011;63447;49.446;8.666;2023-03-23T16:20:17;3.63;;;1.38;;
74894;SDS011;63447;49.446;8.666;2023-03-23T16:22:45;3.80;;;1.50;;
74894;SDS011;63447;49.446;8.666;2023-03-23T16:25:11;4.28;;;1.60;;
74894;SDS011;63447;49.446;8.666;2023-03-23T16:27:38;4.30;;;1.33;;
74894;SDS011;63447;49.446;8.666;2023-03-23T16:30:14;4.10;;;1.58;;
74894;SDS011;63447;49.446;8.666;2023-03-23T16:32:44;3.85;;;1.60;;
74894;SDS011;63447;49.446;8.666;2023-03-23T16:35:13;3.97;;;1.50;;
74894;SDS011;63447;49.446;8.666;2023-03-23T16:37:49;4.43;;;1.60;;
74894;SDS011;63447;49.446;8.666;2023-03-23T16:40:18;4.25;;;1.60;;
74894;SDS011;63447;49.446;8.666;2023-03-23T16:42:45;4.18;;;1.60;;
74894;SDS011;63447;49.446;8.666;2023-03-23T16:45:14;4.43;;;1.45;;
74894;SDS011;63447;49.446;8.666;2023-03-23T16:47:42;4.22;;;1.70;;
74894;SDS011;63447;49.446;8.666;2023-03-23T16:50:14;6.40;;;1.98;;
74894;SDS011;63447;49.446;8.666;2023-03-23T16:52:43;4.05;;;1.60;;
74894;SDS011;63447;49.446;8.666;2023-03-23T16:55:11;4.53;;;1.77;;
74894;SDS011;63447;49.446;8.666;2023-03-23T16:57:38;4.47;;;1.40;;
74894;SDS011;63447;49.446;8.666;2023-03-23T17:00:05;4.95;;;1.67;;
74894;SDS011;63447;49.446;8.666;2023-03-23T17:02:36;3.70;;;1.42;;
74894;SDS011;63447;49.446;8.666;2023-03-23T17:05:04;4.47;;;1.48;;
74894;SDS011;63447;49.446;8.666;2023-03-23T17:07:31;4.15;;;1.55;;
74894;SDS011;63447;49.446;8.666;2023-03-23T17:09:57;4.57;;;1.60;;
74894;SDS011;63447;49.446;8.666;2023-03-23T17:12:22;3.70;;;1.38;;
74894;SDS011;63447;49.446;8.666;2023-03-23T17:14:50;3.70;;;1.58;;
74894;SDS011;63447;49.446;8.666;2023-03-23T17:17:15;3.95;;;1.48;;
74894;SDS011;63447;49.446;8.666;2023-03-23T17:19:41;4.53;;;1.40;;
74894;SDS011;63447;49.446;8.666;2023-03-23T17:22:08;3.55;;;1.50;;
74894;SDS011;63447;49.446;8.666;2023-03-23T17:24:34;4.97;;;1.63;;
74894;SDS011;63447;49.446;8.666;2023-03-23T17:26:59;4.90;;;1.63;;
74894;SDS011;63447;49.446;8.666;2023-03-23T17:29:26;5.50;;;1.55;;
74894;SDS011;63447;49.446;8.666;2023-03-23T17:31:56;4.97;;;1.60;;
74894;SDS011;63447;49.446;8.666;2023-03-23T17:34:23;4.65;;;1.63;;
74894;SDS011;63447;49.446;8.666;2023-03-23T17:36:49;4.13;;;1.57;;
74894;SDS011;63447;49.446;8.666;2023-03-23T17:39:17;4.93;;;1.65;;
74894;SDS011;63447;49.446;8.666;2023-03-23T17:41:43;5.57;;;1.80;;
74894;SDS011;63447;49.446;8.666;2023-03-23T17:44:08;4.47;;;1.50;;
74894;SDS011;63447;49.446;8.666;2023-03-23T17:46:34;3.92;;;1.48;;
74894;SDS011;63447;49.446;8.666;2023-03-23T17:49:01;5.10;;;1.75;;